Elizabethtown, Kentucky
Current Conditions -  °F | °C
As of 3:20 PM on Sunday 23 Nov 2014 (Local Time) from KFTK Reporting Station
Haze Haze  
Wind Chill: 52°   Ceiling: 700
Heat Index: 52°   Visibility: 4mi
Dew Point: 52°   Wind: 10mph
Humidity: 100%   Direction: 110°ESE
Pressure: 29.55"   Gusts: NA
Location:  37.69°N, 85.86°W
Report Text: KFTK 232020Z 11009KT 4SM BR BKN007 OVC013 11/11 A2955 RMK PRESFR
Loading
Personal Weather Stations






























Interactive Weather Map New forecast layout! Learn more

10-Day Weather Forecast

Advertisements
Track Severe Weather on mobile